createdAt,value
2023-04-02T00:03:22.096Z,5.82
2023-04-02T00:05:50.723Z,2.88
2023-04-02T00:08:21.288Z,2.72
2023-04-02T00:10:52.011Z,2.05
2023-04-02T00:13:19.234Z,2.55
2023-04-02T00:15:48.099Z,2.70
2023-04-02T00:18:19.916Z,2.70
2023-04-02T00:21:08.515Z,2.63
2023-04-02T00:23:43.625Z,2.20
2023-04-02T00:26:30.627Z,1.45
2023-04-02T00:28:58.712Z,1.80
2023-04-02T00:31:27.186Z,1.70
2023-04-02T00:33:54.948Z,2.35
2023-04-02T00:36:23.776Z,1.52
2023-04-02T00:38:51.159Z,2.22
2023-04-02T00:41:27.128Z,2.35
2023-04-02T00:43:54.686Z,1.45
2023-04-02T00:46:25.196Z,1.45
2023-04-02T00:48:59.639Z,1.48
2023-04-02T00:51:33.057Z,1.80
2023-04-02T00:54:04.091Z,1.50
2023-04-02T00:56:39.971Z,1.95
2023-04-02T00:59:17.135Z,1.75
2023-04-02T01:01:45.306Z,1.88
2023-04-02T01:04:32.551Z,11.18
2023-04-02T01:07:05.001Z,1.92
2023-04-02T01:09:41.244Z,1.13
2023-04-02T01:12:29.398Z,1.98
2023-04-02T01:15:09.734Z,1.50
2023-04-02T01:17:42.655Z,1.20
2023-04-02T01:20:16.034Z,1.50
2023-04-02T01:22:49.506Z,1.77
2023-04-02T01:25:23.381Z,1.90
2023-04-02T01:28:05.576Z,1.38
2023-04-02T01:30:35.913Z,1.77
2023-04-02T01:33:03.945Z,1.10
2023-04-02T01:35:34.859Z,1.80
2023-04-02T01:38:10.392Z,1.33
2023-04-02T01:40:44.667Z,1.40
2023-04-02T01:43:27.230Z,2.53
2023-04-02T01:45:54.543Z,1.05
2023-04-02T01:48:24.603Z,1.33
2023-04-02T01:50:54.891Z,0.95
2023-04-02T01:53:23.769Z,1.88
2023-04-02T01:55:53.202Z,2.75
2023-04-02T01:58:25.242Z,1.73
2023-04-02T02:00:52.678Z,1.02
2023-04-02T02:03:21.800Z,1.58
2023-04-02T02:05:49.383Z,0.73
2023-04-02T02:08:41.159Z,1.85
2023-04-02T02:11:12.571Z,1.80
2023-04-02T02:13:42.256Z,1.27
2023-04-02T02:16:14.844Z,1.95
2023-04-02T02:18:43.193Z,1.98
2023-04-02T02:21:10.997Z,1.20
2023-04-02T02:23:38.560Z,2.78
2023-04-02T02:26:07.126Z,1.67
2023-04-02T02:28:39.070Z,2.22
2023-04-02T02:31:08.457Z,1.92
2023-04-02T02:33:43.924Z,2.33
2023-04-02T02:36:23.088Z,2.47
2023-04-02T02:39:13.207Z,2.10
2023-04-02T02:41:45.620Z,2.47
2023-04-02T02:44:19.343Z,2.65
2023-04-02T02:49:19.378Z,1.98
2023-04-02T02:52:14.796Z,1.80
2023-04-02T02:54:47.377Z,2.47
2023-04-02T02:57:16.755Z,1.77
2023-04-02T02:59:45.618Z,1.85
2023-04-02T03:02:13.903Z,1.48
2023-04-02T03:04:41.768Z,1.40
2023-04-02T03:07:09.453Z,2.03
2023-04-02T03:09:51.004Z,1.98
2023-04-02T03:12:24.445Z,1.90
2023-04-02T03:14:58.500Z,1.98
2023-04-02T03:17:31.432Z,1.65
2023-04-02T03:22:41.498Z,1.52
2023-04-02T03:25:11.818Z,1.10
2023-04-02T03:27:44.535Z,2.00
2023-04-02T03:30:15.468Z,1.42
2023-04-02T03:32:44.721Z,1.55
2023-04-02T03:35:21.714Z,1.38
2023-04-02T03:37:52.486Z,1.13
2023-04-02T03:40:24.558Z,1.23
2023-04-02T03:42:54.310Z,1.75
2023-04-02T03:45:27.774Z,1.40
2023-04-02T03:47:57.538Z,1.48
2023-04-02T03:50:43.817Z,1.05
2023-04-02T03:53:12.477Z,1.50
2023-04-02T03:55:41.898Z,1.30
2023-04-02T03:58:15.067Z,1.23
2023-04-02T04:01:23.140Z,2.60
2023-04-02T04:03:51.581Z,1.33
2023-04-02T04:06:22.064Z,1.02
2023-04-02T04:09:10.072Z,0.80
2023-04-02T04:11:40.632Z,2.05
2023-04-02T04:14:11.153Z,1.52
2023-04-02T04:16:47.373Z,1.40
2023-04-02T04:19:36.229Z,1.20
2023-04-02T04:22:30.497Z,0.93
2023-04-02T04:24:58.680Z,1.42
2023-04-02T04:27:52.878Z,1.25
2023-04-02T04:30:29.644Z,0.70
2023-04-02T04:33:01.927Z,1.50
2023-04-02T04:35:38.865Z,1.10
2023-04-02T04:38:09.277Z,1.50
2023-04-02T04:40:44.637Z,1.33
2023-04-02T04:43:16.950Z,0.90
2023-04-02T04:46:19.637Z,2.45
2023-04-02T04:48:50.277Z,1.50
2023-04-02T04:51:20.322Z,1.05
2023-04-02T04:53:48.858Z,0.85
2023-04-02T04:56:19.773Z,1.42
2023-04-02T04:58:53.788Z,1.45
2023-04-02T05:01:28.527Z,0.82
2023-04-02T05:03:56.134Z,1.30
2023-04-02T05:06:35.533Z,1.35
2023-04-02T05:09:08.811Z,1.33
2023-04-02T05:11:53.422Z,1.60
2023-04-02T05:14:32.071Z,1.00
2023-04-02T05:17:08.214Z,1.35
2023-04-02T05:19:44.305Z,1.15
2023-04-02T05:22:22.848Z,0.98
2023-04-02T05:24:56.631Z,0.88
2023-04-02T05:27:27.615Z,0.88
2023-04-02T05:30:15.511Z,2.33
2023-04-02T05:32:49.841Z,1.48
2023-04-02T05:35:19.124Z,1.70
2023-04-02T05:37:46.939Z,1.20
2023-04-02T05:40:20.285Z,1.08
2023-04-02T05:42:49.920Z,1.65
2023-04-02T05:45:23.926Z,1.20
2023-04-02T05:47:52.891Z,0.77
2023-04-02T05:50:24.322Z,1.00
2023-04-02T05:52:54.236Z,0.90
2023-04-02T05:55:33.595Z,0.80
2023-04-02T05:58:31.988Z,1.00
2023-04-02T06:01:02.235Z,0.90
2023-04-02T06:03:37.645Z,0.90
2023-04-02T06:06:35.440Z,1.55
2023-04-02T06:09:08.656Z,1.90
2023-04-02T06:11:42.399Z,1.13
2023-04-02T06:16:38.373Z,0.80
2023-04-02T06:19:17.182Z,1.73
2023-04-02T06:21:46.283Z,1.00
2023-04-02T06:24:17.344Z,0.98
2023-04-02T06:26:47.376Z,0.50
2023-04-02T06:29:29.723Z,1.65
2023-04-02T06:31:59.608Z,1.37
2023-04-02T06:34:28.167Z,0.73
2023-04-02T06:36:58.055Z,0.98
2023-04-02T06:39:27.268Z,1.05
2023-04-02T06:42:07.467Z,1.20
2023-04-02T06:44:36.780Z,1.55
2023-04-02T06:47:17.971Z,0.90
2023-04-02T06:49:51.447Z,0.90
2023-04-02T06:52:23.740Z,1.00
2023-04-02T06:54:51.289Z,1.05
2023-04-02T06:57:19.073Z,0.90
2023-04-02T06:59:46.470Z,0.90
2023-04-02T07:02:35.693Z,1.00
2023-04-02T07:05:06.947Z,1.20
2023-04-02T07:07:34.608Z,1.77
2023-04-02T07:10:01.917Z,1.40
2023-04-02T07:12:29.579Z,1.40
2023-04-02T07:14:56.948Z,0.90
2023-04-02T07:17:24.636Z,1.40
2023-04-02T07:19:52.088Z,2.15
2023-04-02T07:22:20.273Z,1.17
2023-04-02T07:24:47.661Z,1.20
2023-04-02T07:27:15.727Z,3.05
2023-04-02T07:29:43.151Z,0.88
2023-04-02T07:32:11.959Z,2.78
2023-04-02T07:34:39.856Z,1.25
2023-04-02T07:37:08.361Z,1.33
2023-04-02T07:39:37.839Z,0.80
2023-04-02T07:42:07.963Z,1.13
2023-04-02T07:44:35.358Z,1.25
2023-04-02T07:47:03.409Z,1.83
2023-04-02T07:49:30.867Z,1.63
2023-04-02T07:51:58.955Z,2.17
2023-04-02T07:54:27.136Z,4.53
2023-04-02T07:56:54.887Z,3.10
2023-04-02T07:59:22.242Z,1.20
2023-04-02T08:01:50.395Z,1.98
2023-04-02T08:04:22.334Z,1.98
2023-04-02T08:06:50.548Z,1.42
2023-04-02T08:09:18.087Z,1.80
2023-04-02T08:11:46.756Z,1.70
2023-04-02T08:14:14.378Z,1.63
2023-04-02T08:16:52.575Z,1.23
2023-04-02T08:19:20.312Z,1.25
2023-04-02T08:21:50.628Z,1.00
2023-04-02T08:24:21.571Z,1.40
2023-04-02T08:26:49.811Z,1.55
2023-04-02T08:29:17.134Z,2.13
2023-04-02T08:31:46.145Z,1.00
2023-04-02T08:34:13.501Z,1.00
2023-04-02T08:36:42.528Z,1.02
2023-04-02T08:39:13.461Z,1.48
2023-04-02T08:42:04.398Z,1.95
2023-04-02T08:44:43.904Z,0.88
2023-04-02T08:47:13.948Z,2.63
2023-04-02T08:49:49.940Z,2.42
2023-04-02T08:52:29.525Z,1.60
2023-04-02T08:54:58.164Z,1.80
2023-04-02T08:57:36.718Z,1.45
2023-04-02T09:00:42.873Z,1.83
2023-04-02T09:03:15.607Z,1.63
2023-04-02T09:05:44.307Z,1.43
2023-04-02T09:08:22.889Z,2.10
2023-04-02T09:11:03.257Z,2.53
2023-04-02T09:13:31.892Z,1.27
2023-04-02T09:16:06.744Z,1.67
2023-04-02T09:18:34.712Z,2.33
2023-04-02T09:21:03.596Z,1.10
2023-04-02T09:23:31.798Z,0.80
2023-04-02T09:26:04.616Z,1.80
2023-04-02T09:31:07.344Z,0.82
2023-04-02T09:33:48.885Z,1.67
2023-04-02T09:36:18.990Z,0.77
2023-04-02T09:38:59.970Z,1.35
2023-04-02T09:41:28.717Z,1.00
2023-04-02T09:44:13.263Z,1.65
2023-04-02T09:46:52.889Z,1.13
2023-04-02T09:49:23.486Z,0.75
2023-04-02T09:52:07.717Z,0.90
2023-04-02T09:54:41.692Z,1.00
2023-04-02T09:57:38.784Z,1.48
2023-04-02T10:00:29.726Z,1.02
2023-04-02T10:03:19.168Z,1.33
2023-04-02T10:05:47.516Z,0.90
2023-04-02T10:08:25.413Z,1.13
2023-04-02T10:10:54.905Z,1.08
2023-04-02T10:13:25.049Z,1.45
2023-04-02T10:16:12.948Z,1.23
2023-04-02T10:18:43.110Z,1.27
2023-04-02T10:21:12.591Z,0.90
2023-04-02T10:23:40.593Z,0.98
2023-04-02T10:26:27.409Z,1.75
2023-04-02T10:29:24.283Z,1.20
2023-04-02T10:32:08.737Z,1.15
2023-04-02T10:34:36.417Z,1.00
2023-04-02T10:37:27.340Z,1.55
2023-04-02T10:40:08.669Z,1.15
2023-04-02T10:42:39.428Z,0.52
2023-04-02T10:45:26.956Z,1.33
2023-04-02T10:48:14.153Z,0.93
2023-04-02T10:50:50.093Z,0.75
2023-04-02T10:53:21.913Z,1.38
2023-04-02T10:56:03.617Z,0.88
2023-04-02T10:58:32.614Z,1.15
2023-04-02T11:01:08.329Z,0.77
2023-04-02T11:03:42.593Z,0.80
2023-04-02T11:06:19.782Z,0.70
2023-04-02T11:08:48.886Z,1.23
2023-04-02T11:11:18.200Z,0.57
2023-04-02T11:13:55.125Z,0.68
2023-04-02T11:16:22.884Z,0.98
2023-04-02T11:19:09.569Z,0.85
2023-04-02T11:21:55.111Z,0.40
2023-04-02T11:24:29.980Z,1.05
2023-04-02T11:27:23.760Z,1.58
2023-04-02T11:30:00.301Z,1.30
2023-04-02T11:32:29.695Z,1.40
2023-04-02T11:35:06.595Z,0.90
2023-04-02T11:37:34.701Z,0.93
2023-04-02T11:40:05.965Z,0.70
2023-04-02T11:42:36.748Z,1.20
2023-04-02T11:45:22.783Z,1.00
2023-04-02T11:48:03.950Z,0.60
2023-04-02T11:50:36.000Z,0.75
2023-04-02T11:53:04.547Z,0.73
2023-04-02T11:55:33.402Z,0.70
2023-04-02T11:58:20.999Z,0.65
2023-04-02T12:00:57.609Z,0.85
2023-04-02T12:03:36.997Z,0.90
2023-04-02T12:06:25.745Z,1.10
2023-04-02T12:08:57.911Z,1.00
2023-04-02T12:11:33.528Z,0.70
2023-04-02T12:14:01.424Z,0.65
2023-04-02T12:16:33.624Z,0.98
2023-04-02T12:19:01.554Z,0.40
2023-04-02T12:21:29.850Z,1.00
2023-04-02T12:24:00.605Z,1.20
2023-04-02T12:26:30.105Z,0.88
2023-04-02T12:29:15.943Z,1.35
2023-04-02T12:31:45.040Z,1.17
2023-04-02T12:34:16.827Z,3.65
2023-04-02T12:36:54.011Z,1.60
2023-04-02T12:39:21.467Z,1.92
2023-04-02T12:41:49.272Z,1.77
2023-04-02T12:44:19.049Z,1.15
2023-04-02T12:46:47.070Z,1.50
2023-04-02T12:49:33.199Z,1.27
2023-04-02T12:52:03.282Z,0.88
2023-04-02T12:54:33.208Z,0.77
2023-04-02T12:57:19.701Z,2.38
2023-04-02T12:59:46.999Z,1.65
2023-04-02T13:02:32.141Z,2.50
2023-04-02T13:05:01.426Z,1.83
2023-04-02T13:07:30.808Z,0.85
2023-04-02T13:10:03.621Z,1.50
2023-04-02T13:12:41.073Z,2.47
2023-04-02T13:15:08.813Z,1.63
2023-04-02T13:17:40.499Z,6.47
2023-04-02T13:20:26.476Z,8.27
2023-04-02T13:22:54.140Z,1.98
2023-04-02T13:25:25.485Z,15.77
2023-04-02T13:27:53.809Z,20.90
2023-04-02T13:30:23.409Z,13.15
2023-04-02T13:32:51.146Z,17.63
2023-04-02T13:35:18.664Z,3.17
2023-04-02T13:37:46.423Z,4.68
2023-04-02T13:40:14.883Z,4.50
2023-04-02T13:42:46.447Z,5.53
2023-04-02T13:45:34.188Z,3.78
2023-04-02T13:48:01.963Z,5.38
2023-04-02T13:50:30.346Z,4.50
2023-04-02T13:52:58.916Z,2.88
2023-04-02T13:55:29.556Z,2.60
2023-04-02T13:57:57.727Z,2.58
2023-04-02T14:00:25.636Z,4.28
2023-04-02T14:02:58.680Z,2.92
2023-04-02T14:05:46.750Z,3.63
2023-04-02T14:08:26.498Z,4.45
2023-04-02T14:11:19.976Z,4.32
2023-04-02T14:13:47.704Z,3.30
2023-04-02T14:16:17.837Z,2.50
2023-04-02T14:18:59.717Z,6.00
2023-04-02T14:22:09.376Z,4.13
2023-04-02T14:24:44.067Z,5.88
2023-04-02T14:27:20.534Z,5.82
2023-04-02T14:30:17.610Z,4.35
2023-04-02T14:32:47.746Z,5.05
2023-04-02T14:35:24.279Z,6.07
2023-04-02T14:37:51.712Z,6.40
2023-04-02T14:40:19.554Z,7.13
2023-04-02T14:42:47.306Z,4.32
2023-04-02T14:45:22.610Z,8.43
2023-04-02T14:48:02.853Z,3.67
2023-04-02T14:50:33.377Z,3.92
2023-04-02T14:53:04.739Z,3.78
2023-04-02T14:55:38.142Z,2.80
2023-04-02T14:58:10.862Z,3.80
2023-04-02T15:00:43.204Z,4.97
2023-04-02T15:03:14.011Z,3.58
2023-04-02T15:05:43.724Z,3.80
2023-04-02T15:08:23.360Z,4.72
2023-04-02T15:11:09.460Z,2.35
2023-04-02T15:13:37.165Z,9.13
2023-04-02T15:16:23.651Z,2.60
2023-04-02T15:19:00.974Z,3.08
2023-04-02T15:21:55.761Z,3.40
2023-04-02T15:24:49.818Z,3.53
2023-04-02T15:27:36.337Z,4.03
2023-04-02T15:30:12.758Z,3.55
2023-04-02T15:32:41.177Z,3.92
2023-04-02T15:35:27.339Z,2.47
2023-04-02T15:37:58.519Z,2.25
2023-04-02T15:40:44.737Z,1.42
2023-04-02T15:43:25.419Z,2.90
2023-04-02T15:46:01.833Z,1.95
2023-04-02T15:48:29.612Z,1.75
2023-04-02T15:51:15.796Z,1.40
2023-04-02T15:54:11.710Z,3.40
2023-04-02T15:56:51.116Z,1.67
2023-04-02T15:59:18.964Z,1.63
2023-04-02T16:01:52.564Z,2.42
2023-04-02T16:04:36.836Z,2.05
2023-04-02T16:07:04.213Z,1.73
2023-04-02T16:09:50.918Z,2.75
2023-04-02T16:12:19.216Z,1.50
2023-04-02T16:14:48.636Z,1.80
2023-04-02T16:17:28.986Z,2.97
2023-04-02T16:20:14.846Z,1.67
2023-04-02T16:22:57.285Z,2.17
2023-04-02T16:25:29.646Z,2.05
2023-04-02T16:28:02.974Z,1.65
2023-04-02T16:30:39.420Z,1.38
2023-04-02T16:33:16.861Z,3.28
2023-04-02T16:36:04.947Z,1.50
2023-04-02T16:39:09.043Z,1.73
2023-04-02T16:41:51.285Z,2.33
2023-04-02T16:44:18.559Z,3.13
2023-04-02T16:46:57.193Z,2.50
2023-04-02T16:49:36.175Z,2.38
2023-04-02T16:52:27.655Z,2.70
2023-04-02T16:55:19.674Z,1.38
2023-04-02T16:57:59.501Z,1.23
2023-04-02T17:00:27.774Z,1.42
2023-04-02T17:03:14.441Z,2.35
2023-04-02T17:05:57.102Z,3.13
2023-04-02T17:08:25.906Z,1.85
2023-04-02T17:11:13.484Z,2.03
2023-04-02T17:13:43.047Z,1.67
2023-04-02T17:16:37.206Z,3.30
2023-04-02T17:19:09.923Z,2.15
2023-04-02T17:21:38.153Z,2.08
2023-04-02T17:24:25.999Z,2.80
2023-04-02T17:27:23.776Z,2.80
2023-04-02T17:29:53.200Z,1.65
2023-04-02T17:32:26.672Z,2.75
2023-04-02T17:34:54.423Z,3.33
2023-04-02T17:37:27.919Z,2.53
2023-04-02T17:40:04.735Z,1.05
2023-04-02T17:42:35.188Z,2.33
2023-04-02T17:45:06.045Z,1.08
2023-04-02T17:47:39.230Z,1.00
2023-04-02T17:50:13.296Z,1.58
2023-04-02T17:52:43.877Z,2.17
2023-04-02T17:55:48.868Z,1.10
2023-04-02T17:58:22.106Z,1.58
2023-04-02T18:00:49.791Z,1.08
2023-04-02T18:03:42.008Z,1.20
2023-04-02T18:06:09.947Z,1.58
2023-04-02T18:08:49.302Z,1.60
2023-04-02T18:11:31.427Z,1.00
2023-04-02T18:14:22.706Z,1.13
2023-04-02T18:16:51.289Z,1.40
2023-04-02T18:19:21.253Z,0.85
2023-04-02T18:21:49.176Z,1.15
2023-04-02T18:24:16.475Z,0.93
2023-04-02T18:26:56.596Z,1.95
2023-04-02T18:29:38.810Z,0.73
2023-04-02T18:32:06.408Z,1.33
2023-04-02T18:34:52.635Z,0.95
2023-04-02T18:37:32.696Z,1.60
2023-04-02T18:40:03.262Z,1.40
2023-04-02T18:43:03.628Z,0.70
2023-04-02T18:45:49.802Z,1.95
2023-04-02T18:48:35.917Z,1.45
2023-04-02T18:51:05.247Z,0.70
2023-04-02T18:53:34.340Z,1.30
2023-04-02T18:56:04.607Z,0.75
2023-04-02T18:58:46.286Z,1.50
2023-04-02T19:01:16.314Z,0.85
2023-04-02T19:03:54.084Z,1.13
2023-04-02T19:06:24.536Z,1.33
2023-04-02T19:08:58.088Z,1.23
2023-04-02T19:11:29.576Z,1.40
2023-04-02T19:14:05.964Z,1.77
2023-04-02T19:16:43.715Z,1.15
2023-04-02T19:19:20.764Z,0.85
2023-04-02T19:22:13.260Z,1.02
2023-04-02T19:24:59.473Z,0.98
2023-04-02T19:27:41.837Z,2.20
2023-04-02T19:30:09.600Z,1.60
2023-04-02T19:32:53.240Z,1.58
2023-04-02T19:35:27.803Z,1.17
2023-04-02T19:37:55.085Z,2.72
2023-04-02T19:40:25.411Z,1.52
2023-04-02T19:42:54.359Z,3.80
2023-04-02T19:45:36.137Z,2.55
2023-04-02T19:48:09.826Z,1.20
2023-04-02T19:50:37.718Z,0.88
2023-04-02T19:53:04.976Z,1.52
2023-04-02T19:55:32.586Z,1.00
2023-04-02T19:58:08.983Z,1.30
2023-04-02T20:00:45.118Z,1.10
2023-04-02T20:03:12.595Z,1.67
2023-04-02T20:05:40.325Z,1.92
2023-04-02T20:08:07.611Z,3.63
2023-04-02T20:10:35.599Z,2.33
2023-04-02T20:13:03.061Z,1.77
2023-04-02T20:15:30.706Z,3.28
2023-04-02T20:17:58.068Z,15.10
2023-04-02T20:20:25.645Z,3.95
2023-04-02T20:22:52.936Z,2.95
2023-04-02T20:25:20.609Z,3.58
2023-04-02T20:27:47.951Z,4.03
2023-04-02T20:30:15.733Z,3.58
2023-04-02T20:32:43.143Z,2.22
2023-04-02T20:35:10.894Z,3.15
2023-04-02T20:37:40.904Z,3.47
2023-04-02T20:40:09.983Z,3.20
2023-04-02T20:42:37.380Z,2.17
2023-04-02T20:45:06.194Z,2.00
2023-04-02T20:47:33.593Z,1.75
2023-04-02T20:50:01.463Z,2.70
2023-04-02T20:52:30.280Z,3.40
2023-04-02T20:54:57.981Z,2.33
2023-04-02T20:57:27.522Z,2.30
2023-04-02T20:59:55.347Z,4.95
2023-04-02T21:02:22.896Z,5.65
2023-04-02T21:04:50.656Z,2.28
2023-04-02T21:07:17.936Z,1.67
2023-04-02T21:09:45.653Z,1.50
2023-04-02T21:12:13.032Z,1.63
2023-04-02T21:14:40.742Z,2.90
2023-04-02T21:17:08.217Z,2.28
2023-04-02T21:19:36.012Z,2.92
2023-04-02T21:22:03.383Z,1.40
2023-04-02T21:24:31.023Z,2.35
2023-04-02T21:26:58.299Z,1.30
2023-04-02T21:29:25.965Z,1.77
2023-04-02T21:31:53.396Z,2.60
2023-04-02T21:34:21.009Z,1.40
2023-04-02T21:36:50.350Z,1.60
2023-04-02T21:39:19.667Z,1.08
2023-04-02T21:41:50.062Z,1.85
2023-04-02T21:44:18.454Z,3.50
2023-04-02T21:46:46.242Z,4.28
2023-04-02T21:49:16.260Z,2.70
2023-04-02T21:51:44.388Z,3.92
2023-04-02T21:54:12.160Z,2.78
2023-04-02T21:56:43.875Z,4.07
2023-04-02T21:59:12.528Z,2.00
2023-04-02T22:01:41.218Z,2.67
2023-04-02T22:04:10.022Z,2.67
2023-04-02T22:06:38.997Z,1.63
2023-04-02T22:09:11.627Z,1.63
2023-04-02T22:11:40.696Z,2.30
2023-04-02T22:14:08.603Z,1.30
2023-04-02T22:16:36.493Z,2.42
2023-04-02T22:19:07.144Z,2.53
2023-04-02T22:21:34.833Z,1.40
2023-04-02T22:24:06.232Z,1.45
2023-04-02T22:26:33.874Z,1.95
2023-04-02T22:29:01.583Z,4.80
2023-04-02T22:31:29.916Z,2.10
2023-04-02T22:33:58.470Z,2.40
2023-04-02T22:36:26.652Z,2.20
2023-04-02T22:38:54.494Z,1.80
2023-04-02T22:41:26.241Z,1.60
2023-04-02T22:43:54.627Z,2.10
2023-04-02T22:46:22.326Z,1.58
2023-04-02T22:48:50.636Z,1.73
2023-04-02T22:51:19.880Z,1.30
2023-04-02T22:53:47.847Z,1.98
2023-04-02T22:56:18.160Z,2.08
2023-04-02T22:58:45.970Z,1.38
2023-04-02T23:01:18.894Z,1.30
2023-04-02T23:03:46.751Z,1.63
2023-04-02T23:06:16.154Z,1.48
2023-04-02T23:08:43.855Z,1.30
2023-04-02T23:11:18.343Z,1.70
2023-04-02T23:13:47.951Z,1.83
2023-04-02T23:16:15.638Z,1.10
2023-04-02T23:18:43.928Z,1.42
2023-04-02T23:21:11.649Z,0.98
2023-04-02T23:23:39.252Z,1.45
2023-04-02T23:26:10.553Z,2.30
2023-04-02T23:28:38.586Z,1.33
2023-04-02T23:31:08.281Z,1.88
2023-04-02T23:33:36.097Z,1.13
2023-04-02T23:36:32.539Z,0.70
2023-04-02T23:39:03.962Z,1.40
2023-04-02T23:41:31.772Z,1.58
2023-04-02T23:43:59.511Z,1.70
2023-04-02T23:46:26.924Z,1.52
2023-04-02T23:48:54.836Z,1.40
2023-04-02T23:51:22.262Z,1.35
2023-04-02T23:53:50.609Z,1.40
2023-04-02T23:56:18.375Z,1.20
2023-04-02T23:58:46.271Z,2.15
